sensor_id;sensor_type;location;lat;lon;timestamp;pressure;altitude;pressure_sealevel;temperature;humidity
77288;BME280;66345;42.694;23.346;2024-01-06T00:01:00;95410.44;;;5.47;88.61
77288;BME280;66345;42.694;23.346;2024-01-06T00:03:25;95415.31;;;5.34;88.78
77288;BME280;66345;42.694;23.346;2024-01-06T00:05:51;95421.75;;;5.05;89.87
77288;BME280;66345;42.694;23.346;2024-01-06T00:08:16;95391.84;;;5.06;90.13
77288;BME280;66345;42.694;23.346;2024-01-06T00:10:42;95382.25;;;5.31;88.96
77288;BME280;66345;42.694;23.346;2024-01-06T00:13:07;95375.72;;;5.51;88.12
77288;BME280;66345;42.694;23.346;2024-01-06T00:15:33;95393.03;;;5.62;87.90
77288;BME280;66345;42.694;23.346;2024-01-06T00:17:59;95366.66;;;5.38;88.02
77288;BME280;66345;42.694;23.346;2024-01-06T00:20:24;95403.69;;;5.44;88.13
77288;BME280;66345;42.694;23.346;2024-01-06T00:22:50;95408.28;;;5.50;88.26
77288;BME280;66345;42.694;23.346;2024-01-06T00:25:15;95406.16;;;5.46;88.37
77288;BME280;66345;42.694;23.346;2024-01-06T00:27:41;95392.00;;;5.39;87.99
77288;BME280;66345;42.694;23.346;2024-01-06T00:30:06;95384.13;;;5.55;87.06
77288;BME280;66345;42.694;23.346;2024-01-06T00:32:33;95400.59;;;5.57;86.80
77288;BME280;66345;42.694;23.346;2024-01-06T00:34:58;95392.00;;;5.39;87.88
77288;BME280;66345;42.694;23.346;2024-01-06T00:37:24;95413.69;;;5.41;87.15
77288;BME280;66345;42.694;23.346;2024-01-06T00:39:50;95419.00;;;5.57;87.60
77288;BME280;66345;42.694;23.346;2024-01-06T00:42:15;95424.09;;;5.58;86.89
77288;BME280;66345;42.694;23.346;2024-01-06T00:44:41;95398.75;;;5.49;86.37
77288;BME280;66345;42.694;23.346;2024-01-06T00:47:06;95404.31;;;5.38;86.36
77288;BME280;66345;42.694;23.346;2024-01-06T00:49:32;95398.03;;;5.31;86.58
77288;BME280;66345;42.694;23.346;2024-01-06T00:51:58;95387.34;;;5.33;86.15
77288;BME280;66345;42.694;23.346;2024-01-06T00:54:23;95371.53;;;5.24;86.59
77288;BME280;66345;42.694;23.346;2024-01-06T00:56:49;95400.84;;;5.29;86.87
77288;BME280;66345;42.694;23.346;2024-01-06T00:59:15;95385.53;;;5.25;87.17
77288;BME280;66345;42.694;23.346;2024-01-06T01:01:41;95402.81;;;5.36;86.59
77288;BME280;66345;42.694;23.346;2024-01-06T01:04:06;95412.66;;;5.25;86.95
77288;BME280;66345;42.694;23.346;2024-01-06T01:06:32;95395.06;;;4.92;87.54
77288;BME280;66345;42.694;23.346;2024-01-06T01:08:57;95400.75;;;4.79;88.80
77288;BME280;66345;42.694;23.346;2024-01-06T01:11:23;95392.56;;;4.90;88.77
77288;BME280;66345;42.694;23.346;2024-01-06T01:13:48;95372.69;;;4.88;88.63
77288;BME280;66345;42.694;23.346;2024-01-06T01:16:14;95369.31;;;4.69;88.99
77288;BME280;66345;42.694;23.346;2024-01-06T01:18:40;95375.22;;;4.71;89.70
77288;BME280;66345;42.694;23.346;2024-01-06T01:21:06;95380.44;;;4.63;89.52
77288;BME280;66345;42.694;23.346;2024-01-06T01:23:32;95380.84;;;4.77;89.41
77288;BME280;66345;42.694;23.346;2024-01-06T01:25:57;95378.06;;;4.52;89.49
77288;BME280;66345;42.694;23.346;2024-01-06T01:28:26;95377.16;;;4.61;89.93
77288;BME280;66345;42.694;23.346;2024-01-06T01:30:52;95401.69;;;4.70;89.12
77288;BME280;66345;42.694;23.346;2024-01-06T01:33:17;95403.00;;;4.48;90.51
77288;BME280;66345;42.694;23.346;2024-01-06T01:35:43;95365.28;;;4.57;90.24
77288;BME280;66345;42.694;23.346;2024-01-06T01:38:09;95393.31;;;4.74;89.85
77288;BME280;66345;42.694;23.346;2024-01-06T01:40:34;95381.34;;;4.80;89.74
77288;BME280;66345;42.694;23.346;2024-01-06T01:43:00;95382.91;;;4.65;89.50
77288;BME280;66345;42.694;23.346;2024-01-06T01:45:25;95354.19;;;4.20;90.50
77288;BME280;66345;42.694;23.346;2024-01-06T01:47:51;95362.09;;;3.84;92.08
77288;BME280;66345;42.694;23.346;2024-01-06T01:50:16;95349.81;;;4.02;92.93
77288;BME280;66345;42.694;23.346;2024-01-06T01:52:42;95374.13;;;4.30;92.22
77288;BME280;66345;42.694;23.346;2024-01-06T01:55:08;95345.53;;;4.01;92.43
77288;BME280;66345;42.694;23.346;2024-01-06T01:57:33;95353.75;;;4.24;92.71
77288;BME280;66345;42.694;23.346;2024-01-06T02:00:00;95340.25;;;4.45;91.55
77288;BME280;66345;42.694;23.346;2024-01-06T02:02:26;95347.88;;;4.56;90.18
77288;BME280;66345;42.694;23.346;2024-01-06T02:04:55;95343.19;;;4.42;90.72
77288;BME280;66345;42.694;23.346;2024-01-06T02:07:21;95339.00;;;4.57;90.24
77288;BME280;66345;42.694;23.346;2024-01-06T02:09:46;95331.59;;;4.53;89.66
77288;BME280;66345;42.694;23.346;2024-01-06T02:12:12;95328.81;;;4.54;89.87
77288;BME280;66345;42.694;23.346;2024-01-06T02:14:37;95343.28;;;4.84;89.36
77288;BME280;66345;42.694;23.346;2024-01-06T02:17:03;95332.91;;;4.83;88.95
77288;BME280;66345;42.694;23.346;2024-01-06T02:19:29;95334.16;;;4.70;89.31
77288;BME280;66345;42.694;23.346;2024-01-06T02:21:54;95309.03;;;4.42;90.35
77288;BME280;66345;42.694;23.346;2024-01-06T02:24:20;95302.06;;;4.59;90.77
77288;BME280;66345;42.694;23.346;2024-01-06T02:26:46;95313.41;;;4.59;90.40
77288;BME280;66345;42.694;23.346;2024-01-06T02:29:12;95300.97;;;4.69;90.27
77288;BME280;66345;42.694;23.346;2024-01-06T02:31:37;95322.94;;;4.60;89.82
77288;BME280;66345;42.694;23.346;2024-01-06T02:34:03;95313.88;;;4.55;90.49
77288;BME280;66345;42.694;23.346;2024-01-06T02:36:28;95284.41;;;4.69;90.41
77288;BME280;66345;42.694;23.346;2024-01-06T02:38:54;95306.56;;;4.74;89.18
77288;BME280;66345;42.694;23.346;2024-01-06T02:41:19;95296.66;;;4.60;90.19
77288;BME280;66345;42.694;23.346;2024-01-06T02:43:46;95302.84;;;4.85;90.24
77288;BME280;66345;42.694;23.346;2024-01-06T02:46:11;95300.59;;;4.56;89.91
77288;BME280;66345;42.694;23.346;2024-01-06T02:48:37;95292.03;;;4.54;90.51
77288;BME280;66345;42.694;23.346;2024-01-06T02:51:02;95272.88;;;4.62;89.70
77288;BME280;66345;42.694;23.346;2024-01-06T02:53:28;95282.22;;;4.64;90.36
77288;BME280;66345;42.694;23.346;2024-01-06T02:55:54;95295.72;;;4.69;89.93
77288;BME280;66345;42.694;23.346;2024-01-06T02:58:19;95308.13;;;4.85;89.91
77288;BME280;66345;42.694;23.346;2024-01-06T03:00:45;95287.94;;;4.94;88.77
77288;BME280;66345;42.694;23.346;2024-01-06T03:03:10;95264.72;;;4.81;88.32
77288;BME280;66345;42.694;23.346;2024-01-06T03:05:36;95263.63;;;4.92;88.38
77288;BME280;66345;42.694;23.346;2024-01-06T03:08:03;95259.59;;;4.71;89.03
77288;BME280;66345;42.694;23.346;2024-01-06T03:10:28;95262.88;;;4.73;89.35
77288;BME280;66345;42.694;23.346;2024-01-06T03:12:54;95267.13;;;4.66;88.67
77288;BME280;66345;42.694;23.346;2024-01-06T03:15:19;95268.09;;;4.65;89.26
77288;BME280;66345;42.694;23.346;2024-01-06T03:17:45;95266.03;;;4.77;88.68
77288;BME280;66345;42.694;23.346;2024-01-06T03:20:10;95267.59;;;4.62;88.65
77288;BME280;66345;42.694;23.346;2024-01-06T03:22:36;95255.81;;;4.32;89.99
77288;BME280;66345;42.694;23.346;2024-01-06T03:25:03;95251.38;;;4.32;90.12
77288;BME280;66345;42.694;23.346;2024-01-06T03:27:29;95239.38;;;4.38;89.56
77288;BME280;66345;42.694;23.346;2024-01-06T03:29:55;95253.25;;;4.48;88.98
77288;BME280;66345;42.694;23.346;2024-01-06T03:32:21;95245.09;;;4.67;87.80
77288;BME280;66345;42.694;23.346;2024-01-06T03:34:46;95274.56;;;4.79;87.52
77288;BME280;66345;42.694;23.346;2024-01-06T03:37:12;95270.91;;;4.64;88.32
77288;BME280;66345;42.694;23.346;2024-01-06T03:39:38;95260.00;;;4.51;88.67
77288;BME280;66345;42.694;23.346;2024-01-06T03:42:03;95255.25;;;4.54;88.59
77288;BME280;66345;42.694;23.346;2024-01-06T03:44:29;95247.69;;;4.59;87.84
77288;BME280;66345;42.694;23.346;2024-01-06T03:46:59;95275.41;;;4.80;87.07
77288;BME280;66345;42.694;23.346;2024-01-06T03:49:25;95257.59;;;4.65;87.16
77288;BME280;66345;42.694;23.346;2024-01-06T03:51:51;95255.31;;;4.70;86.97
77288;BME280;66345;42.694;23.346;2024-01-06T03:54:16;95250.69;;;4.64;87.04
77288;BME280;66345;42.694;23.346;2024-01-06T03:56:42;95261.56;;;4.69;87.04
77288;BME280;66345;42.694;23.346;2024-01-06T03:59:08;95240.81;;;4.58;87.60
77288;BME280;66345;42.694;23.346;2024-01-06T04:01:34;95236.25;;;4.68;86.97
77288;BME280;66345;42.694;23.346;2024-01-06T04:04:04;95260.00;;;4.51;87.49
77288;BME280;66345;42.694;23.346;2024-01-06T04:06:30;95246.66;;;4.44;88.21
77288;BME280;66345;42.694;23.346;2024-01-06T04:08:57;95256.53;;;4.50;87.26
77288;BME280;66345;42.694;23.346;2024-01-06T04:11:23;95272.88;;;4.62;88.03
77288;BME280;66345;42.694;23.346;2024-01-06T04:13:48;95258.06;;;4.61;88.24
77288;BME280;66345;42.694;23.346;2024-01-06T04:16:14;95256.91;;;4.55;86.97
77288;BME280;66345;42.694;23.346;2024-01-06T04:18:40;95234.13;;;4.38;87.70
77288;BME280;66345;42.694;23.346;2024-01-06T04:21:05;95253.97;;;4.66;86.69
77288;BME280;66345;42.694;23.346;2024-01-06T04:23:31;95238.22;;;4.66;86.09
77288;BME280;66345;42.694;23.346;2024-01-06T04:25:56;95246.81;;;4.77;86.40
77288;BME280;66345;42.694;23.346;2024-01-06T04:28:22;95267.25;;;4.57;86.54
77288;BME280;66345;42.694;23.346;2024-01-06T04:30:48;95258.44;;;4.32;88.03
77288;BME280;66345;42.694;23.346;2024-01-06T04:33:13;95268.41;;;4.54;88.13
77288;BME280;66345;42.694;23.346;2024-01-06T04:35:39;95275.91;;;4.49;87.66
77288;BME280;66345;42.694;23.346;2024-01-06T04:38:04;95251.44;;;4.49;87.16
77288;BME280;66345;42.694;23.346;2024-01-06T04:40:30;95268.81;;;4.41;86.99
77288;BME280;66345;42.694;23.346;2024-01-06T04:42:55;95251.94;;;4.52;86.48
77288;BME280;66345;42.694;23.346;2024-01-06T04:45:21;95274.53;;;4.71;85.39
77288;BME280;66345;42.694;23.346;2024-01-06T04:47:49;95276.03;;;4.73;85.02
77288;BME280;66345;42.694;23.346;2024-01-06T04:50:15;95273.69;;;4.62;84.80
77288;BME280;66345;42.694;23.346;2024-01-06T04:52:40;95289.59;;;4.61;86.48
77288;BME280;66345;42.694;23.346;2024-01-06T04:55:06;95279.69;;;4.47;86.82
77288;BME280;66345;42.694;23.346;2024-01-06T04:57:32;95273.91;;;4.43;86.63
77288;BME280;66345;42.694;23.346;2024-01-06T04:59:57;95283.09;;;4.39;86.04
77288;BME280;66345;42.694;23.346;2024-01-06T05:02:23;95272.63;;;4.47;85.83
77288;BME280;66345;42.694;23.346;2024-01-06T05:04:49;95268.81;;;4.41;85.86
77288;BME280;66345;42.694;23.346;2024-01-06T05:07:15;95280.28;;;4.14;87.15
77288;BME280;66345;42.694;23.346;2024-01-06T05:09:40;95250.03;;;4.28;87.35
77288;BME280;66345;42.694;23.346;2024-01-06T05:12:06;95244.66;;;4.38;85.84
77288;BME280;66345;42.694;23.346;2024-01-06T05:14:31;95246.84;;;4.16;86.83
77288;BME280;66345;42.694;23.346;2024-01-06T05:16:57;95240.66;;;4.00;87.31
77288;BME280;66345;42.694;23.346;2024-01-06T05:19:23;95274.63;;;4.27;86.78
77288;BME280;66345;42.694;23.346;2024-01-06T05:21:48;95258.84;;;4.19;86.92
77288;BME280;66345;42.694;23.346;2024-01-06T05:24:14;95248.97;;;3.87;87.59
77288;BME280;66345;42.694;23.346;2024-01-06T05:26:39;95223.09;;;4.00;87.65
77288;BME280;66345;42.694;23.346;2024-01-06T05:29:05;95243.22;;;3.92;87.81
77288;BME280;66345;42.694;23.346;2024-01-06T05:31:31;95240.56;;;3.83;88.56
77288;BME280;66345;42.694;23.346;2024-01-06T05:33:56;95234.03;;;3.87;88.82
77288;BME280;66345;42.694;23.346;2024-01-06T05:36:22;95210.25;;;3.63;89.17
77288;BME280;66345;42.694;23.346;2024-01-06T05:38:47;95252.56;;;3.86;89.48
77288;BME280;66345;42.694;23.346;2024-01-06T05:41:13;95232.34;;;3.78;89.91
77288;BME280;66345;42.694;23.346;2024-01-06T05:43:38;95241.84;;;4.05;88.73
77288;BME280;66345;42.694;23.346;2024-01-06T05:46:04;95226.66;;;4.17;83.17
77288;BME280;66345;42.694;23.346;2024-01-06T05:48:30;95237.38;;;4.24;85.00
77288;BME280;66345;42.694;23.346;2024-01-06T05:50:55;95224.91;;;4.26;84.31
77288;BME280;66345;42.694;23.346;2024-01-06T05:53:21;95230.63;;;4.21;82.21
77288;BME280;66345;42.694;23.346;2024-01-06T05:55:47;95240.38;;;4.03;85.57
77288;BME280;66345;42.694;23.346;2024-01-06T05:58:13;95205.56;;;4.01;84.01
77288;BME280;66345;42.694;23.346;2024-01-06T06:00:38;95233.75;;;4.25;83.58
77288;BME280;66345;42.694;23.346;2024-01-06T06:03:04;95226.97;;;4.14;84.33
77288;BME280;66345;42.694;23.346;2024-01-06T06:05:30;95219.50;;;4.27;84.16
77288;BME280;66345;42.694;23.346;2024-01-06T06:07:55;95245.25;;;4.58;81.01
77288;BME280;66345;42.694;23.346;2024-01-06T06:10:21;95219.78;;;4.58;81.10
77288;BME280;66345;42.694;23.346;2024-01-06T06:12:47;95226.56;;;4.69;79.89
77288;BME280;66345;42.694;23.346;2024-01-06T06:15:12;95222.50;;;4.83;78.69
77288;BME280;66345;42.694;23.346;2024-01-06T06:17:39;95227.63;;;4.92;76.27
77288;BME280;66345;42.694;23.346;2024-01-06T06:20:05;95220.06;;;4.97;74.72
77288;BME280;66345;42.694;23.346;2024-01-06T06:22:32;95214.97;;;4.96;74.52
77288;BME280;66345;42.694;23.346;2024-01-06T06:25:01;95232.78;;;5.26;76.30
77288;BME280;66345;42.694;23.346;2024-01-06T06:27:27;95220.28;;;5.20;76.37
77288;BME280;66345;42.694;23.346;2024-01-06T06:29:54;95209.63;;;5.22;76.46
77288;BME280;66345;42.694;23.346;2024-01-06T06:32:21;95226.84;;;5.16;75.68
77288;BME280;66345;42.694;23.346;2024-01-06T06:34:46;95224.06;;;5.10;76.94
77288;BME280;66345;42.694;23.346;2024-01-06T06:37:12;95226.50;;;5.11;76.94
77288;BME280;66345;42.694;23.346;2024-01-06T06:39:38;95230.91;;;4.94;78.11
77288;BME280;66345;42.694;23.346;2024-01-06T06:42:04;95259.41;;;5.15;79.08
77288;BME280;66345;42.694;23.346;2024-01-06T06:44:29;95200.84;;;5.05;78.67
77288;BME280;66345;42.694;23.346;2024-01-06T06:46:55;95241.50;;;5.27;76.79
77288;BME280;66345;42.694;23.346;2024-01-06T06:49:21;95243.44;;;5.09;78.42
77288;BME280;66345;42.694;23.346;2024-01-06T06:51:47;95248.38;;;5.12;79.29
77288;BME280;66345;42.694;23.346;2024-01-06T06:54:14;95232.94;;;4.66;80.48
77288;BME280;66345;42.694;23.346;2024-01-06T06:56:43;95234.72;;;5.00;78.04
77288;BME280;66345;42.694;23.346;2024-01-06T06:59:09;95228.66;;;5.16;77.66
77288;BME280;66345;42.694;23.346;2024-01-06T07:01:35;95231.13;;;5.25;77.86
77288;BME280;66345;42.694;23.346;2024-01-06T07:04:01;95229.59;;;4.98;79.21
77288;BME280;66345;42.694;23.346;2024-01-06T07:06:27;95208.63;;;5.31;78.01
77288;BME280;66345;42.694;23.346;2024-01-06T07:08:54;95214.06;;;5.29;76.54
77288;BME280;66345;42.694;23.346;2024-01-06T07:11:20;95243.84;;;5.38;77.87
77288;BME280;66345;42.694;23.346;2024-01-06T07:13:45;95233.31;;;5.54;77.26
77288;BME280;66345;42.694;23.346;2024-01-06T07:16:11;95217.81;;;5.51;76.72
77288;BME280;66345;42.694;23.346;2024-01-06T07:18:39;95229.22;;;5.52;76.53
77288;BME280;66345;42.694;23.346;2024-01-06T07:21:05;95228.03;;;5.71;76.60
77288;BME280;66345;42.694;23.346;2024-01-06T07:23:34;95218.84;;;5.83;76.27
77288;BME280;66345;42.694;23.346;2024-01-06T07:25:59;95222.13;;;5.85;74.50
77288;BME280;66345;42.694;23.346;2024-01-06T07:28:25;95216.03;;;5.76;76.11
77288;BME280;66345;42.694;23.346;2024-01-06T07:30:51;95211.13;;;5.98;75.08
77288;BME280;66345;42.694;23.346;2024-01-06T07:33:16;95221.78;;;5.96;75.35
77288;BME280;66345;42.694;23.346;2024-01-06T07:35:42;95213.31;;;6.33;74.78
77288;BME280;66345;42.694;23.346;2024-01-06T07:38:09;95203.31;;;6.21;73.59
77288;BME280;66345;42.694;23.346;2024-01-06T07:40:36;95203.72;;;6.49;73.09
77288;BME280;66345;42.694;23.346;2024-01-06T07:43:01;95223.75;;;6.66;71.49
77288;BME280;66345;42.694;23.346;2024-01-06T07:45:27;95220.75;;;6.30;73.48
77288;BME280;66345;42.694;23.346;2024-01-06T07:47:53;95207.41;;;6.71;70.94
77288;BME280;66345;42.694;23.346;2024-01-06T07:50:18;95211.56;;;6.09;73.11
77288;BME280;66345;42.694;23.346;2024-01-06T07:52:44;95203.56;;;6.42;72.88
77288;BME280;66345;42.694;23.346;2024-01-06T07:55:09;95221.53;;;6.38;72.46
77288;BME280;66345;42.694;23.346;2024-01-06T07:57:35;95219.56;;;6.32;72.39
77288;BME280;66345;42.694;23.346;2024-01-06T08:00:01;95200.91;;;6.58;72.13
77288;BME280;66345;42.694;23.346;2024-01-06T08:02:26;95200.75;;;6.52;71.95
77288;BME280;66345;42.694;23.346;2024-01-06T08:04:52;95224.47;;;6.52;72.88
77288;BME280;66345;42.694;23.346;2024-01-06T08:07:19;95212.25;;;6.59;72.60
77288;BME280;66345;42.694;23.346;2024-01-06T08:09:44;95216.09;;;7.10;70.92
77288;BME280;66345;42.694;23.346;2024-01-06T08:12:10;95233.84;;;6.93;72.43
77288;BME280;66345;42.694;23.346;2024-01-06T08:14:35;95205.88;;;6.84;71.60
77288;BME280;66345;42.694;23.346;2024-01-06T08:17:01;95235.31;;;6.57;73.30
77288;BME280;66345;42.694;23.346;2024-01-06T08:19:26;95199.75;;;6.53;73.37
77288;BME280;66345;42.694;23.346;2024-01-06T08:21:53;95199.09;;;6.51;73.51
77288;BME280;66345;42.694;23.346;2024-01-06T08:24:19;95253.00;;;6.32;74.53
77288;BME280;66345;42.694;23.346;2024-01-06T08:26:44;95176.03;;;6.53;73.17
77288;BME280;66345;42.694;23.346;2024-01-06T08:29:10;95213.75;;;6.53;72.80
77288;BME280;66345;42.694;23.346;2024-01-06T08:31:36;95227.47;;;6.40;73.66
77288;BME280;66345;42.694;23.346;2024-01-06T08:34:01;95194.28;;;6.62;72.30
77288;BME280;66345;42.694;23.346;2024-01-06T08:36:27;95217.88;;;6.48;73.35
77288;BME280;66345;42.694;23.346;2024-01-06T08:38:52;95196.53;;;7.05;72.38
77288;BME280;66345;42.694;23.346;2024-01-06T08:41:18;95203.91;;;7.78;68.62
77288;BME280;66345;42.694;23.346;2024-01-06T08:43:43;95216.06;;;6.87;68.98
77288;BME280;66345;42.694;23.346;2024-01-06T08:46:09;95220.09;;;7.06;69.92
77288;BME280;66345;42.694;23.346;2024-01-06T08:48:34;95186.69;;;7.21;68.01
77288;BME280;66345;42.694;23.346;2024-01-06T08:51:00;95213.09;;;7.21;67.79
77288;BME280;66345;42.694;23.346;2024-01-06T08:53:26;95202.91;;;7.41;67.17
77288;BME280;66345;42.694;23.346;2024-01-06T08:55:51;95207.56;;;7.08;68.50
77288;BME280;66345;42.694;23.346;2024-01-06T08:58:17;95197.91;;;6.92;67.15
77288;BME280;66345;42.694;23.346;2024-01-06T09:00:43;95213.81;;;6.76;69.27
77288;BME280;66345;42.694;23.346;2024-01-06T09:03:08;95189.81;;;6.94;68.05
77288;BME280;66345;42.694;23.346;2024-01-06T09:05:35;95192.34;;;7.10;68.34
77288;BME280;66345;42.694;23.346;2024-01-06T09:08:01;95166.03;;;7.25;67.39
77288;BME280;66345;42.694;23.346;2024-01-06T09:10:26;95179.53;;;7.30;66.43
77288;BME280;66345;42.694;23.346;2024-01-06T09:12:54;95184.47;;;7.33;66.36
77288;BME280;66345;42.694;23.346;2024-01-06T09:15:20;95163.50;;;7.55;66.03
77288;BME280;66345;42.694;23.346;2024-01-06T09:17:45;95186.06;;;7.19;67.75
77288;BME280;66345;42.694;23.346;2024-01-06T09:20:14;95169.75;;;7.16;68.02
77288;BME280;66345;42.694;23.346;2024-01-06T09:22:39;95134.97;;;7.35;67.18
77288;BME280;66345;42.694;23.346;2024-01-06T09:25:05;95182.28;;;7.14;68.11
77288;BME280;66345;42.694;23.346;2024-01-06T09:27:31;95148.56;;;7.24;68.01
77288;BME280;66345;42.694;23.346;2024-01-06T09:29:56;95154.91;;;7.15;66.72
77288;BME280;66345;42.694;23.346;2024-01-06T09:32:22;95146.59;;;7.26;68.10
77288;BME280;66345;42.694;23.346;2024-01-06T09:34:48;95116.69;;;7.34;67.18
77288;BME280;66345;42.694;23.346;2024-01-06T09:37:14;95146.66;;;7.18;68.71
77288;BME280;66345;42.694;23.346;2024-01-06T09:39:39;95121.03;;;7.27;68.84
77288;BME280;66345;42.694;23.346;2024-01-06T09:42:05;95131.56;;;7.49;67.88
77288;BME280;66345;42.694;23.346;2024-01-06T09:44:32;95129.22;;;7.32;68.73
77288;BME280;66345;42.694;23.346;2024-01-06T09:46:58;95117.63;;;7.41;66.99
77288;BME280;66345;42.694;23.346;2024-01-06T09:49:28;95126.41;;;7.33;68.36
77288;BME280;66345;42.694;23.346;2024-01-06T09:51:56;95129.97;;;7.17;68.42
77288;BME280;66345;42.694;23.346;2024-01-06T09:54:23;95127.66;;;7.60;67.23
77288;BME280;66345;42.694;23.346;2024-01-06T09:56:50;95155.47;;;7.25;67.86
77288;BME280;66345;42.694;23.346;2024-01-06T09:59:16;95121.78;;;7.35;67.50
77288;BME280;66345;42.694;23.346;2024-01-06T10:01:42;95081.50;;;7.56;66.31
77288;BME280;66345;42.694;23.346;2024-01-06T10:04:08;95082.41;;;7.93;66.12
77288;BME280;66345;42.694;23.346;2024-01-06T10:06:34;95121.34;;;7.46;67.37
77288;BME280;66345;42.694;23.346;2024-01-06T10:09:01;95077.75;;;7.50;67.58
77288;BME280;66345;42.694;23.346;2024-01-06T10:11:26;95089.03;;;7.44;67.13
77288;BME280;66345;42.694;23.346;2024-01-06T10:13:52;95084.03;;;7.49;66.98
77288;BME280;66345;42.694;23.346;2024-01-06T10:16:19;95068.03;;;7.95;64.89
77288;BME280;66345;42.694;23.346;2024-01-06T10:18:45;95073.59;;;7.56;65.04
77288;BME280;66345;42.694;23.346;2024-01-06T10:21:10;95074.22;;;7.73;64.96
77288;BME280;66345;42.694;23.346;2024-01-06T10:23:36;95106.56;;;7.75;66.30
77288;BME280;66345;42.694;23.346;2024-01-06T10:26:02;95057.28;;;8.12;64.16
77288;BME280;66345;42.694;23.346;2024-01-06T10:28:28;95034.72;;;7.79;63.23
77288;BME280;66345;42.694;23.346;2024-01-06T10:30:57;95085.59;;;7.73;65.06
77288;BME280;66345;42.694;23.346;2024-01-06T10:33:24;95022.28;;;8.10;64.22
77288;BME280;66345;42.694;23.346;2024-01-06T10:35:50;95048.97;;;8.00;64.39
77288;BME280;66345;42.694;23.346;2024-01-06T10:38:15;95069.97;;;8.01;64.52
77288;BME280;66345;42.694;23.346;2024-01-06T10:40:58;95030.09;;;8.47;62.71
77288;BME280;66345;42.694;23.346;2024-01-06T10:43:27;95041.59;;;8.25;62.59
77288;BME280;66345;42.694;23.346;2024-01-06T10:45:56;95062.28;;;7.77;64.94
77288;BME280;66345;42.694;23.346;2024-01-06T10:48:27;95028.28;;;8.18;63.93
77288;BME280;66345;42.694;23.346;2024-01-06T10:50:56;95031.19;;;8.38;63.01
77288;BME280;66345;42.694;23.346;2024-01-06T10:53:22;95023.41;;;8.73;61.78
77288;BME280;66345;42.694;23.346;2024-01-06T10:55:49;95012.91;;;8.79;61.82
77288;BME280;66345;42.694;23.346;2024-01-06T10:58:17;95034.38;;;8.91;62.16
77288;BME280;66345;42.694;23.346;2024-01-06T11:00:43;95028.38;;;8.40;62.26
77288;BME280;66345;42.694;23.346;2024-01-06T11:03:09;94981.66;;;8.47;62.46
77288;BME280;66345;42.694;23.346;2024-01-06T11:05:39;95013.31;;;8.40;63.01
77288;BME280;66345;42.694;23.346;2024-01-06T11:08:06;94998.63;;;8.01;64.17
77288;BME280;66345;42.694;23.346;2024-01-06T11:10:32;94999.97;;;8.48;63.64
77288;BME280;66345;42.694;23.346;2024-01-06T11:13:09;94991.81;;;8.28;63.17
77288;BME280;66345;42.694;23.346;2024-01-06T11:15:45;94985.06;;;8.26;63.94
77288;BME280;66345;42.694;23.346;2024-01-06T11:18:41;95010.38;;;8.71;63.71
77288;BME280;66345;42.694;23.346;2024-01-06T11:21:17;95008.00;;;8.55;64.60
77288;BME280;66345;42.694;23.346;2024-01-06T11:26:43;95002.47;;;8.35;66.24
77288;BME280;66345;42.694;23.346;2024-01-06T11:29:09;94947.66;;;8.65;64.53
77288;BME280;66345;42.694;23.346;2024-01-06T11:31:36;94937.13;;;8.93;63.07
77288;BME280;66345;42.694;23.346;2024-01-06T11:34:22;95007.81;;;9.06;63.93
77288;BME280;66345;42.694;23.346;2024-01-06T11:36:49;94916.78;;;9.28;62.55
77288;BME280;66345;42.694;23.346;2024-01-06T11:39:45;94945.38;;;9.11;63.55
77288;BME280;66345;42.694;23.346;2024-01-06T11:42:11;94947.34;;;9.31;63.41
77288;BME280;66345;42.694;23.346;2024-01-06T11:44:39;94897.78;;;9.59;61.01
77288;BME280;66345;42.694;23.346;2024-01-06T11:47:05;94920.69;;;9.04;62.22
77288;BME280;66345;42.694;23.346;2024-01-06T11:49:31;94924.19;;;9.39;62.68
77288;BME280;66345;42.694;23.346;2024-01-06T11:51:58;94903.47;;;9.56;62.47
77288;BME280;66345;42.694;23.346;2024-01-06T11:54:24;94884.38;;;9.61;61.21
77288;BME280;66345;42.694;23.346;2024-01-06T11:56:49;94894.63;;;9.01;62.78
77288;BME280;66345;42.694;23.346;2024-01-06T11:59:15;94889.56;;;9.06;63.01
77288;BME280;66345;42.694;23.346;2024-01-06T12:01:41;94890.34;;;9.35;62.18
77288;BME280;66345;42.694;23.346;2024-01-06T12:04:07;94913.84;;;9.51;61.58
77288;BME280;66345;42.694;23.346;2024-01-06T12:06:33;94885.00;;;9.28;62.82
77288;BME280;66345;42.694;23.346;2024-01-06T12:09:06;94899.81;;;8.88;64.25
77288;BME280;66345;42.694;23.346;2024-01-06T12:11:32;94873.81;;;8.98;63.86
77288;BME280;66345;42.694;23.346;2024-01-06T12:13:57;94858.47;;;9.15;63.67
77288;BME280;66345;42.694;23.346;2024-01-06T12:16:23;94861.47;;;9.47;62.29
77288;BME280;66345;42.694;23.346;2024-01-06T12:18:53;94838.69;;;9.11;63.37
77288;BME280;66345;42.694;23.346;2024-01-06T12:21:25;94855.91;;;8.94;64.37
77288;BME280;66345;42.694;23.346;2024-01-06T12:23:51;94856.94;;;8.99;63.73
77288;BME280;66345;42.694;23.346;2024-01-06T12:26:19;94856.69;;;9.22;63.67
77288;BME280;66345;42.694;23.346;2024-01-06T12:28:45;94867.97;;;9.37;63.76
77288;BME280;66345;42.694;23.346;2024-01-06T12:31:11;94893.38;;;9.32;64.64
77288;BME280;66345;42.694;23.346;2024-01-06T12:33:38;94864.63;;;9.29;64.68
77288;BME280;66345;42.694;23.346;2024-01-06T12:36:06;94862.34;;;9.19;64.26
77288;BME280;66345;42.694;23.346;2024-01-06T12:38:32;94862.16;;;9.21;65.23
77288;BME280;66345;42.694;23.346;2024-01-06T12:40:59;94871.88;;;9.07;65.33
77288;BME280;66345;42.694;23.346;2024-01-06T12:43:25;94853.06;;;8.95;66.36
77288;BME280;66345;42.694;23.346;2024-01-06T12:45:51;94861.53;;;9.18;66.15
77288;BME280;66345;42.694;23.346;2024-01-06T12:48:18;94859.72;;;9.19;65.77
77288;BME280;66345;42.694;23.346;2024-01-06T12:50:44;94856.53;;;9.37;66.04
77288;BME280;66345;42.694;23.346;2024-01-06T12:53:09;94835.81;;;9.47;65.53
77288;BME280;66345;42.694;23.346;2024-01-06T12:55:37;94834.06;;;9.67;63.95
77288;BME280;66345;42.694;23.346;2024-01-06T12:58:03;94825.63;;;9.51;63.85